Terminal Aerodrome Forecast
Issued by NWS Wilmington, OH

Current Version | Previous Version | Text Only | Print | Product List | Glossary Off
Versions: 1 2 3 4 5 6 7 8 9 10 11 12 13 14 15 16 17 18

000
FTUS41 KILN 211121
TAFILN
TAF
KILN 211121Z 2112/2212 06008KT P6SM SCT050 OVC200
     FM211400 12006KT P6SM VCSH SCT040 BKN200
     FM211800 13008KT P6SM VCTS BKN040CB
      TEMPO 2119/2123 4SM -TSRA BR OVC035CB
     FM220100 18007KT P6SM VCSH BKN040=

USA.gov is the U.S. government's official web portal to all federal, state and local government web resources and services.